Beograd / Ada Ciganlija

RS-0034 · Central Serbia, Serbia

Storia di METAR RS-0034 · Beograd / Ada Ciganlija

Di seguito sono riportati i METAR degli ultimi giorni. Seleziona un anno per sfogliare i METAR più vecchi, dall'anno 2007 in poi.

22 aprile 2024

Tempo Codice Tempo meteorologico Temp. Vista Base nuvolosa Vento METAR/SPECI
04:30
V
5 °C 10 km+ - 270° 270° 8 kt METAR LYBE 220230Z 27008KT CAVOK 05/03 Q1016 NOSIG
04:00
V
5 °C 10 km+ - 260° 260° 9 kt METAR LYBE 220200Z 26009KT CAVOK 05/03 Q1016 NOSIG
03:30
V
6 °C 10 km+ - 260° 260° 9 kt METAR LYBE 220130Z 26009KT CAVOK 06/03 Q1015 NOSIG
03:00
V
6 °C 10 km+ - 260° 260° 8 kt METAR LYBE 220100Z 26008KT CAVOK 06/04 Q1015 NOSIG
02:30
V
7 °C 10 km+ - 250° 250° 7 kt METAR LYBE 220030Z 25007KT CAVOK 07/04 Q1015 NOSIG
02:00
V
7 °C 10 km+ - 250° 250° 8 kt METAR LYBE 220000Z 25008KT CAVOK 07/05 Q1015 NOSIG
01:30
V
8 °C 10 km+ - 230° 230° 6 kt METAR LYBE 212330Z 23006KT 9999 SCT043 08/05 Q1015 NOSIG
01:00
V
8 °C 10 km+ 4.300 ft 230° 230° 6 kt METAR LYBE 212300Z 23006KT 9999 BKN043 08/05 Q1015 NOSIG
00:30
V
8 °C 10 km+ - 220° 220° 5 kt METAR LYBE 212230Z 22005KT 9999 SCT043 08/06 Q1015 NOSIG
00:00
V
9 °C 10 km+ - 250° 250° 5 kt METAR LYBE 212200Z 25005KT 9999 SCT043 09/05 Q1015 NOSIG

21 aprile 2024

Tempo Codice Tempo meteorologico Temp. Vista Base nuvolosa Vento METAR/SPECI
23:30
V
9 °C 10 km+ 4.000 ft 270° 270° 8 kt METAR LYBE 212130Z 27008KT 9999 -RA BKN040 09/05 Q1014 NOSIG
23:00
V
9 °C 10 km+ 4.000 ft 260° 260° 8 kt METAR LYBE 212100Z 26008KT 9999 -RA BKN040 09/06 Q1014 NOSIG
22:30
V
9 °C 10 km+ 4.000 ft 270° 270° 9 kt METAR LYBE 212030Z 27009KT 9999 -RA BKN040 09/06 Q1014 NOSIG
22:00
V
9 °C 10 km+ 4.000 ft 260° 260° 8 kt METAR LYBE 212000Z 26008KT 9999 -RA BKN040 09/05 Q1014 NOSIG
21:30
V
9 °C 10 km+ 4.000 ft 250° 250° 7 kt METAR LYBE 211930Z 25007KT 9999 -RA BKN040 09/06 Q1014 NOSIG
21:00
V
9 °C 10 km+ 4.000 ft 240° 240° 7 kt METAR LYBE 211900Z 24007KT 9999 -RA BKN040 09/06 Q1014 NOSIG
20:30
V
9 °C 10 km+ 4.000 ft 230° 230° 9 kt METAR LYBE 211830Z 23009KT 190V250 9999 -RA BKN040 09/06 Q1013 NOSIG
20:00
V
9 °C 10 km+ 4.600 ft 230° 230° 8 kt METAR LYBE 211800Z 23008KT 9999 -RA BKN046 09/06 Q1013 NOSIG
19:30
V
9 °C 10 km+ 4.600 ft 230° 230° 9 kt METAR LYBE 211730Z 23009KT 9999 -RA BKN046 09/06 Q1012 NOSIG
19:00
V
9 °C 10 km+ 4.600 ft 250° 250° 10 kt METAR LYBE 211700Z 25010KT 9999 -RA BKN046 09/06 Q1012 NOSIG
18:30
V
10 °C 10 km+ - 250° 250° 10 kt METAR LYBE 211630Z 25010KT 9999 -RA SCT046 10/06 Q1012 NOSIG
18:00
V
10 °C 10 km+ - 260° 260° 12 - 24 kt METAR LYBE 211600Z 26012G24KT 9999 -RA SCT046 10/06 Q1012 NOSIG
17:30
V
10 °C 10 km+ - 250° 250° 10 kt METAR LYBE 211530Z 25010KT 9999 -RA SCT046 10/06 Q1012 NOSIG
17:00
V
10 °C 10 km+ - 240° 240° 11 kt METAR LYBE 211500Z 24011KT CAVOK 10/05 Q1012 NOSIG
16:30
V
11 °C 10 km+ 4.300 ft 240° 240° 12 kt METAR LYBE 211430Z 24012KT 9999 BKN043 11/05 Q1012 NOSIG
16:00
V
11 °C 10 km+ - 250° 250° 10 kt METAR LYBE 211400Z 25010KT 9999 -RA SCT043 11/05 Q1011 NOSIG
15:30
V
12 °C 10 km+ - 250° 250° 9 kt METAR LYBE 211330Z 25009KT 9999 -RA SCT043 12/04 Q1011 NOSIG
15:00
V
12 °C 10 km+ - 240° 240° 8 kt METAR LYBE 211300Z 24008KT 200V280 9999 SCT043 12/03 Q1012 NOSIG
14:30
V
12 °C 10 km+ - 270° 270° 8 kt METAR LYBE 211230Z 27008KT 240V310 9999 SCT035 12/03 Q1012 NOSIG
14:00
V
11 °C 10 km+ - 250° 250° 7 kt METAR LYBE 211200Z 25007KT 200V300 9999 SCT033 11/04 Q1012 NOSIG
13:30
V
11 °C 10 km+ - 240° 240° 8 kt METAR LYBE 211130Z 24008KT 200V320 9999 SCT033 11/04 Q1012 NOSIG
13:00
V
10 °C 10 km+ - 250° 250° 7 kt METAR LYBE 211100Z 25007KT 210V300 9999 SCT030 10/04 Q1012 NOSIG
12:30
M
10 °C 10 km+ 3.000 ft 250° 250° 6 kt METAR LYBE 211030Z 25006KT 200V340 9999 BKN030 10/04 Q1013 NOSIG
12:00
V
10 °C 10 km+ 3.300 ft 270° 270° 8 kt METAR LYBE 211000Z 27008KT 230V310 9999 SCT026 BKN033 10/04 Q1013 NOSIG
11:30
M
9 °C 10 km+ 2.500 ft 280° 280° 8 kt METAR LYBE 210930Z 28008KT 220V320 9999 BKN025 09/04 Q1013 NOSIG
11:00
M
9 °C 10 km+ 2.000 ft 260° 260° 8 kt METAR LYBE 210900Z 26008KT 230V300 9999 BKN020 09/04 Q1013 NOSIG
10:30
M
9 °C 10 km+ 2.300 ft 290° 290° 8 kt METAR LYBE 210830Z 29008KT 240V320 9999 BKN023 09/04 Q1013 NOSIG
10:00
V
9 °C 10 km+ - 330° 330° 10 kt METAR LYBE 210800Z 33010KT 9999 SCT020 09/04 Q1013 NOSIG
09:30
M
8 °C 10 km+ 1.800 ft 320° 320° 9 kt METAR LYBE 210730Z 32009KT 9999 BKN018 08/04 Q1013 NOSIG
09:00
M
8 °C 10 km+ 1.700 ft 320° 320° 10 kt METAR LYBE 210700Z 32010KT 9999 BKN017 08/04 Q1013 NOSIG
08:30
M
7 °C 10 km+ 1.500 ft 330° 330° 11 kt METAR LYBE 210630Z 33011KT 9999 BKN015 07/04 Q1013 BECMG SCT018
08:00
M
7 °C 10 km+ 1.400 ft 330° 330° 11 kt METAR LYBE 210600Z 33011KT 9999 BKN014 07/04 Q1013 BECMG SCT014
07:30
V
7 °C 10 km+ - 330° 330° 11 kt METAR LYBE 210530Z 33011KT 9999 SCT015 07/04 Q1013 NOSIG
07:00
V
7 °C 10 km+ - 320° 320° 9 kt METAR LYBE 210500Z 32009KT 9999 SCT013 07/04 Q1013 NOSIG
06:30
V
6 °C 10 km+ - 330° 330° 8 kt METAR LYBE 210430Z 33008KT CAVOK 06/04 Q1012 NOSIG
06:00
V
6 °C 10 km+ - 310° 310° 8 kt METAR LYBE 210400Z 31008KT CAVOK 06/03 Q1012 NOSIG
05:30
V
6 °C 10 km+ - 330° 330° 7 kt METAR LYBE 210330Z 33007KT CAVOK 06/03 Q1012 NOSIG
05:00
V
7 °C 10 km+ - 320° 320° 8 kt METAR LYBE 210300Z 32008KT CAVOK 07/03 Q1012 NOSIG
04:30
V
7 °C 10 km+ - 330° 330° 9 kt METAR LYBE 210230Z 33009KT CAVOK 07/03 Q1012 NOSIG
04:00
V
7 °C 10 km+ - 350° 350° 8 kt METAR LYBE 210200Z 35008KT CAVOK 07/03 Q1012 NOSIG
03:30
V
7 °C 10 km+ - 360° 360° 8 kt METAR LYBE 210130Z 36008KT CAVOK 07/03 Q1012 NOSIG
03:00
V
7 °C 10 km+ - 350° 350° 9 kt METAR LYBE 210100Z 35009KT CAVOK 07/03 Q1012 NOSIG
02:30
V
7 °C 10 km+ - 350° 350° 7 kt METAR LYBE 210030Z 35007KT CAVOK 07/02 Q1012 NOSIG
02:00
V
7 °C 10 km+ - 340° 340° 5 kt METAR LYBE 210000Z 34005KT CAVOK 07/02 Q1012 NOSIG
01:30
V
8 °C 10 km+ - 330° 330° 6 kt METAR LYBE 202330Z 33006KT CAVOK 08/02 Q1012 NOSIG
01:00
V
8 °C 10 km+ - 350° 350° 6 kt METAR LYBE 202300Z 35006KT CAVOK 08/02 Q1012 NOSIG
00:30
V
8 °C 10 km+ - 340° 340° 7 kt METAR LYBE 202230Z 34007KT CAVOK 08/02 Q1012 NOSIG
00:00
V
10 °C 10 km+ - 330° 330° 2 kt METAR LYBE 202200Z 33002KT CAVOK 10/01 Q1011 NOSIG

20 aprile 2024

Tempo Codice Tempo meteorologico Temp. Vista Base nuvolosa Vento METAR/SPECI
23:30
V
10 °C 10 km+ - 010° 010° 3 kt METAR LYBE 202130Z 01003KT CAVOK 10/01 Q1011 NOSIG
23:00
V
11 °C 10 km+ - 020° 020° 4 kt METAR LYBE 202100Z 02004KT CAVOK 11/01 Q1011 NOSIG
22:30
V
11 °C 10 km+ - 020° 020° 4 kt METAR LYBE 202030Z 02004KT CAVOK 11/00 Q1011 NOSIG
22:00
V
11 °C 10 km+ - 010° 010° 5 kt METAR LYBE 202000Z 01005KT CAVOK 11/M00 Q1011 NOSIG
21:30
V
12 °C 10 km+ - 020° 020° 5 kt METAR LYBE 201930Z 02005KT CAVOK 12/M01 Q1011 NOSIG
21:00
V
12 °C 10 km+ - 020° 020° 4 kt METAR LYBE 201900Z 02004KT CAVOK 12/M01 Q1011 NOSIG
20:30
V
13 °C 10 km+ - 020° 020° 4 kt METAR LYBE 201830Z 02004KT CAVOK 13/M01 Q1010 NOSIG
20:00
V
13 °C 10 km+ - 020° 020° 5 kt METAR LYBE 201800Z 02005KT CAVOK 13/M02 Q1010 NOSIG
19:30
V
14 °C 10 km+ - 030° 030° 5 kt METAR LYBE 201730Z 03005KT CAVOK 14/M02 Q1010 NOSIG
19:00
V
14 °C 10 km+ - 020° 020° 5 kt METAR LYBE 201700Z 02005KT CAVOK 14/M03 Q1010 NOSIG
18:30
V
14 °C 10 km+ - 010° 010° 6 kt METAR LYBE 201630Z 01006KT CAVOK 14/M03 Q1010 NOSIG
18:00
V
15 °C 10 km+ - 360° 360° 7 kt METAR LYBE 201600Z 36007KT CAVOK 15/M03 Q1009 NOSIG
17:30
V
15 °C 10 km+ - 010° 010° 6 kt METAR LYBE 201530Z 01006KT 340V040 CAVOK 15/M04 Q1009 NOSIG
17:00
V
16 °C 10 km+ - 010° 010° 8 kt METAR LYBE 201500Z 01008KT 300V050 CAVOK 16/M03 Q1009 NOSIG
16:30
V
16 °C 10 km+ - 350° 350° 7 kt METAR LYBE 201430Z 35007KT 300V040 CAVOK 16/M03 Q1009 NOSIG
16:00
V
16 °C 10 km+ - 360° 360° 6 kt METAR LYBE 201400Z 36006KT 320V060 CAVOK 16/M03 Q1009 NOSIG
15:30
V
16 °C 10 km+ - 340° 340° 8 kt METAR LYBE 201330Z 34008KT 300V040 CAVOK 16/M02 Q1009 NOSIG
15:00
V
16 °C 10 km+ - Var Var 3 kt METAR LYBE 201300Z VRB03KT CAVOK 16/M02 Q1009 NOSIG
14:30
V
16 °C 10 km+ - Var Var 4 kt METAR LYBE 201230Z VRB04KT CAVOK 16/M03 Q1010 NOSIG
14:00
V
15 °C 10 km+ - 310° 310° 7 kt METAR LYBE 201200Z 31007KT 280V340 CAVOK 15/M02 Q1010 NOSIG
13:30
V
15 °C 10 km+ - 350° 350° 6 kt METAR LYBE 201130Z 35006KT 290V040 CAVOK 15/M02 Q1010 NOSIG
13:00
V
15 °C 10 km+ - 330° 330° 4 kt METAR LYBE 201100Z 33004KT 250V050 CAVOK 15/M03 Q1010 NOSIG
12:30
V
15 °C 10 km+ - 090° 090° 6 kt METAR LYBE 201030Z 09006KT 010V140 9999 SCT043 15/M03 Q1010 NOSIG
12:00
V
14 °C 10 km+ - 110° 110° 5 kt METAR LYBE 201000Z 11005KT 040V160 9999 FEW040 14/M03 Q1010 NOSIG
11:30
V
14 °C 10 km+ - 150° 150° 5 kt METAR LYBE 200930Z 15005KT 080V250 9999 FEW040 14/M03 Q1010 NOSIG
11:00
V
14 °C 10 km+ - 150° 150° 5 kt METAR LYBE 200900Z 15005KT 090V250 9999 FEW040 14/M03 Q1010 NOSIG
10:30
V
14 °C 10 km+ - 130° 130° 6 kt METAR LYBE 200830Z 13006KT 060V200 CAVOK 14/M02 Q1010 NOSIG
10:00
V
13 °C 10 km+ - 140° 140° 7 kt METAR LYBE 200800Z 14007KT 090V170 CAVOK 13/M02 Q1010 NOSIG
09:30
V
12 °C 10 km+ - 130° 130° 8 kt METAR LYBE 200730Z 13008KT 100V160 CAVOK 12/M00 Q1010 NOSIG
09:00
V
11 °C 10 km+ - 100° 100° 5 kt METAR LYBE 200700Z 10005KT 050V140 CAVOK 11/01 Q1010 NOSIG
08:30
V
9 °C 10 km+ - 090° 090° 4 kt METAR LYBE 200630Z 09004KT CAVOK 09/04 Q1010 NOSIG
08:00
V
6 °C 10 km+ - 070° 070° 3 kt METAR LYBE 200600Z 07003KT CAVOK 06/04 Q1010 NOSIG
07:30
V
5 °C 10 km+ - Var Var 1 kt METAR LYBE 200530Z VRB01KT CAVOK 05/03 Q1010 NOSIG
07:00
V
4 °C 10 km+ - 070° 070° 2 kt METAR LYBE 200500Z 07002KT CAVOK 04/01 Q1010 NOSIG
06:30
V
3 °C 10 km+ - 050° 050° 2 kt METAR LYBE 200430Z 05002KT CAVOK 03/01 Q1010 NOSIG
06:00
V
3 °C 10 km+ - Var Var 1 kt METAR LYBE 200400Z VRB01KT CAVOK 03/01 Q1010 NOSIG
05:30
V
2 °C 10 km+ - 090° 090° 4 kt METAR LYBE 200330Z 09004KT CAVOK 02/M00 Q1010 NOSIG
05:00
V
3 °C 10 km+ - 160° 160° 3 kt METAR LYBE 200300Z 16003KT CAVOK 03/00 Q1010 NOSIG
04:30
V
4 °C 10 km+ - 180° 180° 3 kt METAR LYBE 200230Z 18003KT CAVOK 04/00 Q1010 NOSIG
04:00
V
3 °C 10 km+ - 190° 190° 4 kt METAR LYBE 200200Z 19004KT CAVOK 03/00 Q1010 NOSIG
03:30
V
3 °C 10 km+ - 180° 180° 3 kt METAR LYBE 200130Z 18003KT 160V220 CAVOK 03/01 Q1010 NOSIG
03:00
V
4 °C 10 km+ - 200° 200° 4 kt METAR LYBE 200100Z 20004KT CAVOK 04/01 Q1010 NOSIG
02:30
V
4 °C 10 km+ - Var Var 2 kt METAR LYBE 200030Z VRB02KT CAVOK 04/01 Q1010 NOSIG
02:00
V
4 °C 10 km+ - 180° 180° 5 kt METAR LYBE 200000Z 18005KT CAVOK 04/01 Q1010 NOSIG
01:30
V
4 °C 10 km+ - 170° 170° 4 kt METAR LYBE 192330Z 17004KT CAVOK 04/01 Q1011 NOSIG
01:00
V
5 °C 10 km+ - 170° 170° 5 kt METAR LYBE 192300Z 17005KT CAVOK 05/01 Q1011 NOSIG
00:30
V
5 °C 10 km+ - 180° 180° 3 kt METAR LYBE 192230Z 18003KT CAVOK 05/01 Q1011 NOSIG
00:00
V
6 °C 10 km+ - 160° 160° 5 kt METAR LYBE 192200Z 16005KT CAVOK 06/01 Q1011 NOSIG

19 aprile 2024

Tempo Codice Tempo meteorologico Temp. Vista Base nuvolosa Vento METAR/SPECI
23:30
V
7 °C 10 km+ - 160° 160° 4 kt METAR LYBE 192130Z 16004KT CAVOK 07/01 Q1011 NOSIG
23:00
V
7 °C 10 km+ - 170° 170° 4 kt METAR LYBE 192100Z 17004KT 140V200 CAVOK 07/01 Q1012 NOSIG
22:30
V
7 °C 10 km+ - 150° 150° 4 kt METAR LYBE 192030Z 15004KT CAVOK 07/01 Q1012 NOSIG
22:00
V
9 °C 10 km+ - 190° 190° 3 kt METAR LYBE 192000Z 19003KT CAVOK 09/00 Q1012 NOSIG
21:30
V
10 °C 10 km+ - 190° 190° 3 kt METAR LYBE 191930Z 19003KT 080V230 CAVOK 10/M01 Q1012 NOSIG
21:00
V
10 °C 10 km+ - 200° 200° 4 kt METAR LYBE 191900Z 20004KT 150V230 CAVOK 10/M02 Q1012 NOSIG
20:30
V
11 °C 10 km+ - 210° 210° 3 kt METAR LYBE 191830Z 21003KT CAVOK 11/M01 Q1012 NOSIG
20:00
V
11 °C 10 km+ - 220° 220° 4 kt METAR LYBE 191800Z 22004KT CAVOK 11/M01 Q1012 NOSIG
19:30
V
12 °C 10 km+ - 240° 240° 4 - 14 kt METAR LYBE 191730Z 24004G14KT CAVOK 12/M02 Q1012 NOSIG
19:00
V
13 °C 10 km+ - 250° 250° 3 kt METAR LYBE 191700Z 25003KT 210V010 CAVOK 13/M03 Q1012 NOSIG
18:30
V
13 °C 10 km+ - 260° 260° 4 kt METAR LYBE 191630Z 26004KT 230V320 CAVOK 13/M03 Q1012 NOSIG
18:00
V
12 °C 10 km+ - 270° 270° 5 kt METAR LYBE 191600Z 27005KT 230V310 CAVOK 12/M02 Q1012 NOSIG
17:30
V
13 °C 10 km+ - 300° 300° 5 kt METAR LYBE 191530Z 30005KT 270V350 CAVOK 13/M03 Q1012 NOSIG
17:00
V
12 °C 10 km+ - 290° 290° 6 kt METAR LYBE 191500Z 29006KT 260V320 CAVOK 12/M02 Q1012 NOSIG
16:30
V
13 °C 10 km+ - 280° 280° 7 kt METAR LYBE 191430Z 28007KT 250V340 CAVOK 13/M02 Q1012 NOSIG
16:00
V
13 °C 10 km+ - 310° 310° 4 kt METAR LYBE 191400Z 31004KT 240V360 CAVOK 13/M02 Q1013 NOSIG
15:30
V
14 °C 10 km+ - Var Var 5 kt METAR LYBE 191330Z VRB05KT CAVOK 14/M01 Q1013 NOSIG
15:00
V
13 °C 10 km+ - 290° 290° 7 kt METAR LYBE 191300Z 29007KT 200V360 CAVOK 13/M02 Q1014 NOSIG
14:30
V
12 °C 10 km+ - 320° 320° 8 kt METAR LYBE 191230Z 32008KT 260V350 CAVOK 12/M01 Q1014 NOSIG
14:00
V
13 °C 10 km+ - Var Var 5 kt METAR LYBE 191200Z VRB05KT CAVOK 13/M01 Q1014 NOSIG
13:30
V
13 °C 10 km+ - 310° 310° 8 kt METAR LYBE 191130Z 31008KT 270V360 CAVOK 13/M00 Q1014 NOSIG
13:00
V
13 °C 10 km+ - 280° 280° 11 kt METAR LYBE 191100Z 28011KT 220V340 CAVOK 13/M01 Q1014 NOSIG
12:30
V
12 °C 10 km+ - 290° 290° 10 kt METAR LYBE 191030Z 29010KT 250V340 CAVOK 12/01 Q1015 NOSIG
12:00
V
11 °C 10 km+ - 290° 290° 8 kt METAR LYBE 191000Z 29008KT CAVOK 11/M00 Q1015 NOSIG
11:30
V
11 °C 10 km+ 4.000 ft 290° 290° 9 kt METAR LYBE 190930Z 29009KT 250V330 9999 BKN040 11/01 Q1015 NOSIG
11:00
V
10 °C 10 km+ 4.000 ft 300° 300° 9 kt METAR LYBE 190900Z 30009KT 250V320 9999 BKN040 10/01 Q1015 NOSIG
10:30
V
10 °C 10 km+ - 280° 280° 6 kt METAR LYBE 190830Z 28006KT 220V360 9999 SCT033 10/02 Q1016 NOSIG
10:00
V
9 °C 10 km+ - 300° 300° 6 kt METAR LYBE 190800Z 30006KT 250V350 9999 SCT026 09/03 Q1016 NOSIG
09:30
V
8 °C 10 km+ - 260° 260° 7 kt METAR LYBE 190730Z 26007KT 220V320 9999 FEW018 08/04 Q1016 NOSIG
09:00
V
7 °C 10 km+ - 280° 280° 6 kt METAR LYBE 190700Z 28006KT 240V310 9999 FEW017 07/03 Q1016 NOSIG
08:30
V
6 °C 10 km+ - 240° 240° 7 kt METAR LYBE 190630Z 24007KT CAVOK 06/03 Q1015 NOSIG
08:00
V
5 °C 10 km+ - 240° 240° 7 kt METAR LYBE 190600Z 24007KT 220V280 CAVOK 05/03 Q1015 NOSIG
Segnala modifiche